Time;durP1;ratioP1;P1;durP2;ratioP2;P2;SDS_P1;SDS_P2;PMS_P1;PMS_P2;Temp;Humidity;BMP_temperature;BMP_pressure;BME280_temperature;BME280_humidity;BME280_pressure;Samples;Min_cycle;Max_cycle;Signal;HPM_P1;HPM_P2
2022/01/07 00:01:15;;;;;;;9.37;3.60;;;;;;;;;;5069886;28;20497;-57
2022/01/07 00:03:41;;;;;;;7.43;3.13;;;;;;;;;;5068093;28;20448;-57
2022/01/07 00:06:07;;;;;;;7.00;3.37;;;;;;;;;;5069301;28;20492;-57
2022/01/07 00:08:34;;;;;;;10.47;3.23;;;;;;;;;;5068762;28;20499;-57
2022/01/07 00:11:00;;;;;;;7.80;3.60;;;;;;;;;;5069920;28;20434;-58
2022/01/07 00:13:26;;;;;;;6.50;3.53;;;;;;;;;;5068673;28;20609;-57
2022/01/07 00:15:54;;;;;;;12.17;3.53;;;;;;;;;;5069434;28;20422;-57
2022/01/07 00:18:20;;;;;;;4.50;3.27;;;;;;;;;;5070094;28;20422;-57
2022/01/07 00:20:46;;;;;;;9.80;3.93;;;;;;;;;;5069994;28;20775;-58
2022/01/07 00:23:12;;;;;;;8.83;3.60;;;;;;;;;;5069735;28;20422;-58
2022/01/07 00:25:38;;;;;;;8.30;3.60;;;;;;;;;;5070095;28;20674;-57
2022/01/07 00:28:04;;;;;;;5.50;3.50;;;;;;;;;;5067442;28;20422;-57
2022/01/07 00:30:30;;;;;;;6.07;3.27;;;;;;;;;;5068508;28;20566;-57
2022/01/07 00:32:56;;;;;;;8.67;3.67;;;;;;;;;;5062378;28;20918;-57
2022/01/07 00:35:23;;;;;;;6.23;2.90;;;;;;;;;;5069649;28;20512;-58
2022/01/07 00:37:50;;;;;;;9.03;3.43;;;;;;;;;;5069407;28;20173;-58
2022/01/07 00:40:18;;;;;;;5.87;3.63;;;;;;;;;;5070391;28;20997;-57
2022/01/07 00:42:45;;;;;;;8.33;3.53;;;;;;;;;;5067755;28;20180;-57
2022/01/07 00:45:12;;;;;;;8.73;3.43;;;;;;;;;;5068740;28;20180;-57
2022/01/07 00:47:38;;;;;;;7.20;3.33;;;;;;;;;;5069756;28;20509;-57
2022/01/07 00:50:05;;;;;;;7.40;3.77;;;;;;;;;;5069539;28;20204;-57
2022/01/07 00:52:32;;;;;;;7.17;3.43;;;;;;;;;;5069869;28;20177;-57
2022/01/07 00:54:59;;;;;;;7.53;3.47;;;;;;;;;;5076771;28;20223;-57
2022/01/07 00:57:25;;;;;;;8.37;3.97;;;;;;;;;;5087436;28;20438;-57
2022/01/07 00:59:51;;;;;;;8.40;3.67;;;;;;;;;;5086551;28;20987;-57
2022/01/07 01:02:17;;;;;;;7.00;4.10;;;;;;;;;;5087406;28;20283;-58
2022/01/07 01:04:44;;;;;;;4.67;3.30;;;;;;;;;;5088391;28;20425;-57
2022/01/07 01:07:10;;;;;;;8.90;3.70;;;;;;;;;;5088684;28;20171;-57
2022/01/07 01:09:36;;;;;;;7.07;3.90;;;;;;;;;;5087662;28;20179;-57
2022/01/07 01:12:03;;;;;;;7.20;4.03;;;;;;;;;;5087853;28;20432;-59
2022/01/07 01:14:29;;;;;;;4.40;3.47;;;;;;;;;;5070119;28;20188;-57
2022/01/07 01:16:56;;;;;;;6.10;3.27;;;;;;;;;;5083074;28;20430;-57
2022/01/07 01:19:22;;;;;;;6.30;3.57;;;;;;;;;;5070195;28;20183;-57
2022/01/07 01:21:49;;;;;;;4.67;3.60;;;;;;;;;;5088293;28;20235;-57
2022/01/07 01:24:15;;;;;;;6.87;3.23;;;;;;;;;;5088218;28;20709;-57
2022/01/07 01:26:41;;;;;;;4.50;3.13;;;;;;;;;;5089043;28;20421;-57
2022/01/07 01:29:07;;;;;;;6.50;3.07;;;;;;;;;;5073376;28;20183;-57
2022/01/07 01:31:35;;;;;;;9.07;3.50;;;;;;;;;;5083464;28;20498;-57
2022/01/07 01:34:02;;;;;;;4.50;3.40;;;;;;;;;;5088220;28;20171;-57
2022/01/07 01:36:28;;;;;;;6.07;3.40;;;;;;;;;;5088323;28;20422;-57
2022/01/07 01:38:54;;;;;;;6.03;3.90;;;;;;;;;;5086528;28;20479;-57
2022/01/07 01:41:20;;;;;;;5.57;3.10;;;;;;;;;;5088687;28;20253;-57
2022/01/07 01:43:48;;;;;;;6.27;4.10;;;;;;;;;;5086865;28;20437;-56
2022/01/07 01:46:15;;;;;;;9.73;4.00;;;;;;;;;;5086631;28;20805;-56
2022/01/07 01:48:42;;;;;;;8.27;4.23;;;;;;;;;;5087204;28;20211;-57
2022/01/07 01:51:08;;;;;;;8.83;4.37;;;;;;;;;;5087779;28;20256;-57
2022/01/07 01:53:34;;;;;;;7.73;3.83;;;;;;;;;;5084501;28;20465;-57
2022/01/07 01:56:00;;;;;;;5.00;3.20;;;;;;;;;;5087388;28;20498;-57
2022/01/07 01:58:26;;;;;;;6.27;3.70;;;;;;;;;;5083794;28;20508;-57
2022/01/07 02:00:52;;;;;;;8.70;3.83;;;;;;;;;;5087139;28;20269;-57
2022/01/07 02:03:18;;;;;;;8.77;4.03;;;;;;;;;;5087584;28;20414;-57
2022/01/07 02:05:45;;;;;;;7.13;3.77;;;;;;;;;;5088197;28;20260;-57
2022/01/07 02:08:12;;;;;;;9.53;4.03;;;;;;;;;;5088072;28;20429;-57
2022/01/07 02:10:38;;;;;;;6.73;4.00;;;;;;;;;;5088039;28;20433;-57
2022/01/07 02:13:04;;;;;;;8.67;4.10;;;;;;;;;;5086416;28;20172;-57
2022/01/07 02:15:30;;;;;;;6.00;3.83;;;;;;;;;;5082732;28;20179;-57
2022/01/07 02:17:57;;;;;;;4.93;3.43;;;;;;;;;;5087906;28;20229;-57
2022/01/07 02:20:25;;;;;;;6.57;4.17;;;;;;;;;;5087983;28;20678;-57
2022/01/07 02:22:51;;;;;;;7.70;3.80;;;;;;;;;;5087976;28;20164;-57
2022/01/07 02:25:20;;;;;;;5.23;3.20;;;;;;;;;;5082169;28;20196;-57
2022/01/07 02:27:46;;;;;;;6.83;3.83;;;;;;;;;;5080039;28;20422;-57
2022/01/07 02:30:13;;;;;;;7.83;4.63;;;;;;;;;;5087428;28;20429;-57
2022/01/07 02:32:39;;;;;;;7.63;3.90;;;;;;;;;;5082963;28;20294;-57
2022/01/07 02:35:08;;;;;;;8.83;4.43;;;;;;;;;;5085329;28;20470;-57
2022/01/07 02:37:34;;;;;;;6.30;4.13;;;;;;;;;;5085476;28;20808;-57
2022/01/07 02:40:00;;;;;;;7.27;3.93;;;;;;;;;;5082919;28;20435;-57
2022/01/07 02:42:26;;;;;;;8.17;3.90;;;;;;;;;;5088026;28;20675;-57
2022/01/07 02:44:52;;;;;;;6.00;3.93;;;;;;;;;;5087160;28;20413;-57
2022/01/07 02:47:20;;;;;;;6.57;4.10;;;;;;;;;;5086370;28;20418;-57
2022/01/07 02:49:46;;;;;;;5.80;4.00;;;;;;;;;;5087880;28;20422;-57
2022/01/07 02:52:12;;;;;;;6.33;4.10;;;;;;;;;;5087401;28;20619;-56
2022/01/07 02:54:38;;;;;;;6.23;3.80;;;;;;;;;;5084893;28;20741;-56
2022/01/07 02:57:04;;;;;;;5.03;3.53;;;;;;;;;;5085143;28;20285;-56
2022/01/07 02:59:30;;;;;;;7.87;4.20;;;;;;;;;;5081874;28;20790;-56
2022/01/07 03:01:56;;;;;;;5.50;3.57;;;;;;;;;;5085649;28;20234;-56
2022/01/07 03:04:24;;;;;;;8.07;3.93;;;;;;;;;;5080466;28;20799;-56
2022/01/07 03:06:50;;;;;;;10.70;3.97;;;;;;;;;;5086485;28;20776;-56
2022/01/07 03:09:16;;;;;;;6.10;4.07;;;;;;;;;;5087449;28;20418;-56
2022/01/07 03:11:42;;;;;;;6.00;4.03;;;;;;;;;;5087530;28;20240;-56
2022/01/07 03:14:08;;;;;;;7.40;3.57;;;;;;;;;;5086352;28;20429;-55
2022/01/07 03:16:35;;;;;;;8.13;4.00;;;;;;;;;;5086205;28;20418;-55
2022/01/07 03:19:01;;;;;;;7.03;4.20;;;;;;;;;;5087842;28;20920;-56
2022/01/07 03:21:27;;;;;;;8.97;4.00;;;;;;;;;;5086730;28;20449;-56
2022/01/07 03:23:53;;;;;;;4.70;4.03;;;;;;;;;;5087472;28;20580;-56
2022/01/07 03:26:19;;;;;;;4.10;3.30;;;;;;;;;;5052535;28;20414;-56
2022/01/07 03:28:47;;;;;;;6.47;4.33;;;;;;;;;;5085708;28;20418;-56
2022/01/07 03:31:13;;;;;;;7.60;4.37;;;;;;;;;;5086844;28;20940;-56
2022/01/07 03:33:39;;;;;;;6.90;3.67;;;;;;;;;;5086309;28;20179;-56
2022/01/07 03:36:05;;;;;;;8.87;4.03;;;;;;;;;;5087501;28;20444;-56
2022/01/07 03:38:31;;;;;;;10.00;3.73;;;;;;;;;;5085599;28;20418;-56
2022/01/07 03:40:57;;;;;;;10.50;4.10;;;;;;;;;;5087178;28;20252;-57
2022/01/07 03:43:24;;;;;;;5.50;3.77;;;;;;;;;;5085485;28;20425;-56
2022/01/07 03:45:50;;;;;;;6.10;3.53;;;;;;;;;;5084964;28;20421;-57
2022/01/07 03:48:16;;;;;;;5.33;3.87;;;;;;;;;;5067592;28;20210;-56
2022/01/07 03:50:42;;;;;;;7.00;3.67;;;;;;;;;;5078315;28;20433;-55
2022/01/07 03:53:08;;;;;;;5.03;3.63;;;;;;;;;;5084234;28;20417;-56
2022/01/07 03:55:34;;;;;;;7.17;4.07;;;;;;;;;;5079675;28;20709;-56
2022/01/07 03:58:01;;;;;;;5.73;4.53;;;;;;;;;;5086468;28;20552;-56
2022/01/07 04:00:32;;;;;;;6.73;4.00;;;;;;;;;;5086147;28;20422;-57
2022/01/07 04:03:00;;;;;;;4.90;3.80;;;;;;;;;;5085966;28;20534;-56
2022/01/07 04:05:27;;;;;;;5.10;3.97;;;;;;;;;;5085685;28;20432;-56
2022/01/07 04:07:53;;;;;;;8.37;4.03;;;;;;;;;;5085214;28;20789;-56
2022/01/07 04:10:19;;;;;;;5.50;3.40;;;;;;;;;;5077207;28;20977;-56
2022/01/07 04:12:45;;;;;;;6.77;4.53;;;;;;;;;;5080378;28;20414;-56
2022/01/07 04:15:11;;;;;;;5.37;4.10;;;;;;;;;;5079584;28;20413;-56
2022/01/07 04:17:38;;;;;;;5.57;3.80;;;;;;;;;;5089214;28;20770;-56
2022/01/07 04:20:06;;;;;;;8.07;4.40;;;;;;;;;;5090656;28;20468;-56
2022/01/07 04:22:33;;;;;;;4.73;3.83;;;;;;;;;;5090667;28;20237;-56
2022/01/07 04:24:59;;;;;;;10.67;4.27;;;;;;;;;;5090807;28;20475;-56
2022/01/07 04:27:26;;;;;;;8.73;4.43;;;;;;;;;;5089031;28;20425;-56
2022/01/07 04:29:52;;;;;;;6.93;4.27;;;;;;;;;;5088550;28;20953;-56
2022/01/07 04:32:18;;;;;;;6.80;4.00;;;;;;;;;;5071504;28;20429;-56
2022/01/07 04:34:44;;;;;;;10.17;4.67;;;;;;;;;;5090359;28;20241;-56
2022/01/07 04:37:11;;;;;;;8.87;4.33;;;;;;;;;;5090139;28;20430;-57
2022/01/07 04:39:37;;;;;;;5.33;3.93;;;;;;;;;;5090037;28;20429;-56
2022/01/07 04:42:03;;;;;;;6.07;3.97;;;;;;;;;;5090529;28;20461;-56
2022/01/07 04:44:29;;;;;;;6.23;4.33;;;;;;;;;;5087326;28;20755;-56
2022/01/07 04:46:55;;;;;;;5.77;4.07;;;;;;;;;;5089433;28;20983;-56
2022/01/07 04:49:21;;;;;;;10.10;3.90;;;;;;;;;;5089598;28;20425;-56
2022/01/07 04:51:47;;;;;;;4.40;4.00;;;;;;;;;;5090088;28;20183;-56
2022/01/07 04:54:13;;;;;;;5.73;4.17;;;;;;;;;;5087889;28;20461;-56
2022/01/07 04:56:39;;;;;;;5.27;4.00;;;;;;;;;;5076286;28;20598;-56
2022/01/07 04:59:05;;;;;;;8.93;4.17;;;;;;;;;;5087974;28;20414;-55
2022/01/07 05:01:31;;;;;;;8.67;4.00;;;;;;;;;;5083856;28;20961;-56
2022/01/07 05:03:57;;;;;;;8.03;4.23;;;;;;;;;;5089160;28;20175;-56
2022/01/07 05:09:11;;;;;;;7.10;3.83;;;;;;;;;;5087907;28;20784;-56
2022/01/07 05:11:37;;;;;;;5.60;3.83;;;;;;;;;;5087602;28;20425;-56
2022/01/07 05:14:03;;;;;;;6.93;4.33;;;;;;;;;;5087903;28;20418;-57
2022/01/07 05:16:29;;;;;;;4.20;3.80;;;;;;;;;;5087578;28;20517;-56
2022/01/07 05:18:55;;;;;;;5.23;3.90;;;;;;;;;;5085845;28;20414;-56
2022/01/07 05:21:21;;;;;;;6.57;4.43;;;;;;;;;;5087482;28;20960;-57
2022/01/07 05:23:47;;;;;;;4.23;3.60;;;;;;;;;;5088863;28;20432;-57
2022/01/07 05:26:13;;;;;;;5.47;4.37;;;;;;;;;;5086791;28;20414;-57
2022/01/07 05:28:39;;;;;;;5.97;4.10;;;;;;;;;;5079129;28;20429;-57
2022/01/07 05:31:05;;;;;;;5.10;3.43;;;;;;;;;;5068602;28;20188;-57
2022/01/07 05:33:31;;;;;;;4.97;3.60;;;;;;;;;;5087404;28;20417;-57
2022/01/07 05:35:57;;;;;;;5.27;3.33;;;;;;;;;;5088523;28;20429;-57
2022/01/07 05:38:23;;;;;;;4.60;3.50;;;;;;;;;;5086038;28;20422;-57
2022/01/07 05:40:49;;;;;;;5.70;3.60;;;;;;;;;;5087106;28;20192;-57
2022/01/07 05:43:16;;;;;;;5.10;3.93;;;;;;;;;;5087933;28;20456;-57
2022/01/07 05:45:45;;;;;;;3.37;3.03;;;;;;;;;;5067204;28;20421;-58
2022/01/07 05:48:11;;;;;;;3.60;3.13;;;;;;;;;;5087382;28;20441;-58
2022/01/07 05:50:37;;;;;;;5.37;3.93;;;;;;;;;;5087792;28;20979;-58
2022/01/07 05:53:03;;;;;;;9.10;3.17;;;;;;;;;;5086945;28;20422;-57
2022/01/07 05:55:29;;;;;;;5.77;3.50;;;;;;;;;;5071114;28;20474;-58
2022/01/07 05:57:55;;;;;;;6.67;3.40;;;;;;;;;;5050772;28;20687;-58
2022/01/07 06:00:21;;;;;;;4.53;3.30;;;;;;;;;;5066175;28;20932;-58
2022/01/07 06:02:48;;;;;;;3.37;3.07;;;;;;;;;;5066679;28;20545;-58
2022/01/07 06:05:14;;;;;;;3.93;3.10;;;;;;;;;;5053546;28;20841;-58
2022/01/07 06:07:40;;;;;;;6.30;3.60;;;;;;;;;;5050503;28;20431;-58
2022/01/07 06:10:07;;;;;;;5.07;3.13;;;;;;;;;;5048327;28;20423;-58
2022/01/07 06:12:33;;;;;;;6.10;3.50;;;;;;;;;;5073363;28;20431;-58
2022/01/07 06:14:59;;;;;;;6.90;3.83;;;;;;;;;;5067975;28;20220;-58
2022/01/07 06:17:25;;;;;;;4.10;3.23;;;;;;;;;;5066271;28;20429;-57
2022/01/07 06:19:51;;;;;;;4.63;3.43;;;;;;;;;;5068465;28;20902;-57
2022/01/07 06:22:18;;;;;;;5.40;3.00;;;;;;;;;;5068656;28;20451;-58
2022/01/07 06:24:44;;;;;;;6.50;4.03;;;;;;;;;;5074500;28;20426;-57
2022/01/07 06:27:10;;;;;;;6.70;4.23;;;;;;;;;;5067860;28;20478;-57
2022/01/07 06:29:38;;;;;;;4.37;3.40;;;;;;;;;;5066982;28;20783;-57
2022/01/07 06:32:04;;;;;;;6.97;3.20;;;;;;;;;;5066307;28;20423;-57
2022/01/07 06:34:31;;;;;;;7.90;3.50;;;;;;;;;;5069131;28;20458;-58
2022/01/07 06:36:58;;;;;;;6.23;3.77;;;;;;;;;;5066595;28;20967;-57
2022/01/07 06:39:24;;;;;;;5.67;3.27;;;;;;;;;;5073429;28;20425;-57
2022/01/07 06:41:51;;;;;;;8.23;3.23;;;;;;;;;;5071032;28;20460;-57
2022/01/07 06:44:18;;;;;;;3.90;3.50;;;;;;;;;;5067572;28;20418;-57
2022/01/07 06:46:44;;;;;;;9.20;4.07;;;;;;;;;;5068650;28;20470;-57
2022/01/07 06:49:11;;;;;;;5.03;3.30;;;;;;;;;;5070549;28;20457;-57
2022/01/07 06:51:37;;;;;;;7.03;3.47;;;;;;;;;;5066014;28;21645;-56
2022/01/07 06:54:03;;;;;;;4.77;3.30;;;;;;;;;;5064012;28;20463;-56
2022/01/07 06:56:29;;;;;;;6.77;3.50;;;;;;;;;;5062536;28;20461;-57
2022/01/07 06:58:55;;;;;;;5.00;3.40;;;;;;;;;;5067355;28;21000;-56
2022/01/07 07:01:21;;;;;;;6.60;3.80;;;;;;;;;;5066565;28;20992;-56
2022/01/07 07:03:47;;;;;;;5.03;3.40;;;;;;;;;;5067666;28;20417;-57
2022/01/07 07:06:13;;;;;;;5.60;3.67;;;;;;;;;;5047635;28;20431;-57
2022/01/07 07:08:39;;;;;;;5.53;2.90;;;;;;;;;;5030831;28;20181;-57
2022/01/07 07:11:06;;;;;;;4.33;3.50;;;;;;;;;;5063672;28;20969;-57
2022/01/07 07:13:32;;;;;;;5.90;3.20;;;;;;;;;;5066291;28;20910;-56
2022/01/07 07:15:58;;;;;;;6.80;3.73;;;;;;;;;;5066267;28;20430;-57
2022/01/07 07:18:25;;;;;;;3.80;2.73;;;;;;;;;;5063779;28;20419;-57
2022/01/07 07:20:50;;;;;;;4.93;3.20;;;;;;;;;;5066382;28;20184;-57
2022/01/07 07:23:16;;;;;;;4.13;3.40;;;;;;;;;;5065316;28;20422;-57
2022/01/07 07:25:43;;;;;;;5.93;3.73;;;;;;;;;;5066382;28;20183;-57
2022/01/07 07:28:09;;;;;;;4.07;3.47;;;;;;;;;;5066697;28;20176;-56
2022/01/07 07:30:39;;;;;;;5.90;3.10;;;;;;;;;;5065384;28;20427;-56
2022/01/07 07:38:48;;;;;;;3.40;3.07;;;;;;;;;;5062151;28;20418;-56
2022/01/07 07:41:14;;;;;;;3.93;3.27;;;;;;;;;;5065314;28;20462;-56
2022/01/07 07:43:41;;;;;;;5.97;3.10;;;;;;;;;;5046083;28;20961;-56
2022/01/07 07:46:07;;;;;;;5.03;3.60;;;;;;;;;;5061634;28;20449;-56
2022/01/07 07:48:33;;;;;;;6.90;3.97;;;;;;;;;;5058221;28;20459;-56
2022/01/07 07:50:59;;;;;;;4.73;3.40;;;;;;;;;;5057505;28;20428;-56
2022/01/07 07:53:26;;;;;;;5.40;3.40;;;;;;;;;;5068226;28;20869;-56
2022/01/07 07:55:53;;;;;;;6.77;3.60;;;;;;;;;;5077378;28;20168;-56
2022/01/07 07:58:23;;;;;;;5.43;3.43;;;;;;;;;;5070537;28;20473;-56
2022/01/07 08:00:49;;;;;;;5.87;3.70;;;;;;;;;;5069265;28;20425;-56
2022/01/07 08:03:15;;;;;;;5.77;3.60;;;;;;;;;;5065598;28;20441;-56
2022/01/07 08:05:41;;;;;;;6.37;3.27;;;;;;;;;;5066171;28;21193;-56
2022/01/07 08:08:07;;;;;;;4.63;3.30;;;;;;;;;;5070762;28;20422;-56
2022/01/07 08:10:33;;;;;;;5.23;3.17;;;;;;;;;;5067159;28;20472;-56
2022/01/07 08:18:13;;;;;;;3.93;3.10;;;;;;;;;;5068889;28;20405;-56
2022/01/07 08:20:40;;;;;;;3.57;3.13;;;;;;;;;;5069615;28;20472;-56
2022/01/07 08:23:06;;;;;;;3.67;2.80;;;;;;;;;;5070034;28;20435;-56
2022/01/07 08:25:32;;;;;;;5.70;2.67;;;;;;;;;;5071100;28;20415;-56
2022/01/07 08:28:02;;;;;;;3.57;2.87;;;;;;;;;;5070847;28;20430;-56
2022/01/07 08:30:35;;;;;;;3.97;2.70;;;;;;;;;;5049439;28;20420;-56
2022/01/07 08:35:46;;;;;;;4.53;3.10;;;;;;;;;;5064569;28;20870;-56
2022/01/07 08:38:13;;;;;;;3.77;2.83;;;;;;;;;;5047374;28;20506;-56
2022/01/07 08:40:40;;;;;;;3.87;2.73;;;;;;;;;;5068280;28;21070;-56
2022/01/07 08:43:06;;;;;;;5.47;2.70;;;;;;;;;;5068797;28;20442;-56
2022/01/07 08:45:32;;;;;;;3.60;3.30;;;;;;;;;;5068191;28;20438;-56
2022/01/07 08:47:59;;;;;;;3.40;2.73;;;;;;;;;;5068168;28;20456;-56
2022/01/07 08:50:25;;;;;;;5.00;2.80;;;;;;;;;;5065621;28;20445;-56
2022/01/07 08:52:52;;;;;;;3.03;2.63;;;;;;;;;;5068515;28;20995;-56
2022/01/07 08:55:18;;;;;;;3.83;3.00;;;;;;;;;;5084980;28;20441;-56
2022/01/07 08:57:44;;;;;;;5.97;3.27;;;;;;;;;;5083382;28;20437;-56
2022/01/07 09:00:11;;;;;;;3.10;2.70;;;;;;;;;;5087309;28;20761;-56
2022/01/07 09:02:37;;;;;;;2.83;2.40;;;;;;;;;;5084556;28;20238;-56
2022/01/07 09:05:03;;;;;;;3.57;2.93;;;;;;;;;;5088702;28;20465;-56
2022/01/07 09:07:29;;;;;;;4.53;2.57;;;;;;;;;;5072393;28;20180;-56
2022/01/07 09:09:55;;;;;;;3.90;2.67;;;;;;;;;;5088245;28;20421;-56
2022/01/07 09:12:21;;;;;;;3.20;2.90;;;;;;;;;;5078982;28;20430;-56
2022/01/07 09:14:47;;;;;;;2.97;2.27;;;;;;;;;;5071086;28;20180;-56
2022/01/07 09:17:14;;;;;;;2.70;2.50;;;;;;;;;;5088830;28;20443;-56
2022/01/07 09:19:40;;;;;;;3.33;2.93;;;;;;;;;;5088913;28;20219;-55
2022/01/07 09:22:06;;;;;;;3.13;2.63;;;;;;;;;;5082607;28;20563;-55
2022/01/07 09:24:32;;;;;;;4.90;3.03;;;;;;;;;;5084533;28;20422;-55
2022/01/07 09:26:58;;;;;;;4.83;2.97;;;;;;;;;;5085530;28;20430;-56
2022/01/07 09:29:26;;;;;;;3.40;2.70;;;;;;;;;;5087911;28;20825;-55
2022/01/07 09:31:53;;;;;;;6.43;2.93;;;;;;;;;;5068620;28;20439;-56
2022/01/07 09:34:19;;;;;;;3.97;3.13;;;;;;;;;;5083550;28;20421;-56
2022/01/07 09:36:45;;;;;;;3.13;2.30;;;;;;;;;;5089253;28;20429;-56
2022/01/07 09:39:12;;;;;;;2.80;2.57;;;;;;;;;;5089092;28;20217;-56
2022/01/07 09:41:38;;;;;;;4.60;2.87;;;;;;;;;;5089589;28;20976;-56
2022/01/07 09:44:04;;;;;;;2.50;2.30;;;;;;;;;;5086186;28;20434;-56
2022/01/07 09:46:30;;;;;;;5.57;3.23;;;;;;;;;;5088056;28;20507;-55
2022/01/07 09:48:56;;;;;;;6.60;2.80;;;;;;;;;;5088441;28;20413;-56
2022/01/07 09:51:26;;;;;;;4.17;2.60;;;;;;;;;;5089315;28;20410;-56
2022/01/07 09:53:52;;;;;;;4.80;3.57;;;;;;;;;;5085244;28;20790;-56
2022/01/07 09:56:19;;;;;;;3.50;2.90;;;;;;;;;;5068697;28;20525;-56
2022/01/07 09:58:45;;;;;;;3.20;2.50;;;;;;;;;;5069117;28;20216;-56
2022/01/07 10:01:20;;;;;;;3.63;2.77;;;;;;;;;;5068182;28;20941;-56
2022/01/07 10:03:46;;;;;;;5.00;3.10;;;;;;;;;;5048969;28;20969;-56
2022/01/07 10:06:20;;;;;;;4.70;3.00;;;;;;;;;;5049153;28;20937;-56
2022/01/07 10:08:58;;;;;;;4.23;2.50;;;;;;;;;;5058101;28;20399;-56
2022/01/07 10:11:24;;;;;;;2.77;2.30;;;;;;;;;;5068991;28;20572;-55
2022/01/07 10:13:52;;;;;;;3.90;2.33;;;;;;;;;;5061063;28;20515;-56
2022/01/07 10:16:19;;;;;;;3.73;2.83;;;;;;;;;;5060636;28;20184;-56
2022/01/07 10:18:47;;;;;;;3.77;2.60;;;;;;;;;;5066513;28;20423;-56
2022/01/07 10:21:13;;;;;;;4.63;2.30;;;;;;;;;;5067191;28;20549;-56
2022/01/07 10:23:39;;;;;;;2.87;2.23;;;;;;;;;;5060251;28;20429;-56
2022/01/07 10:26:11;;;;;;;3.10;2.67;;;;;;;;;;5067288;28;20669;-55
2022/01/07 10:28:37;;;;;;;3.17;2.57;;;;;;;;;;5063658;28;20871;-56
2022/01/07 10:31:03;;;;;;;4.17;2.40;;;;;;;;;;5066336;28;20834;-56
2022/01/07 10:33:29;;;;;;;2.63;2.43;;;;;;;;;;5066558;28;20181;-56
2022/01/07 10:36:13;;;;;;;3.03;2.40;;;;;;;;;;5066080;28;20255;-56
2022/01/07 10:39:01;;;;;;;2.90;2.30;;;;;;;;;;5067528;28;20407;-56
2022/01/07 10:41:27;;;;;;;2.90;2.50;;;;;;;;;;5068308;28;20203;-55
2022/01/07 10:43:53;;;;;;;4.00;2.20;;;;;;;;;;5062851;28;20797;-55
2022/01/07 10:46:27;;;;;;;3.03;2.30;;;;;;;;;;5064518;28;20438;-56
2022/01/07 10:48:53;;;;;;;2.30;2.10;;;;;;;;;;5063858;28;20446;-56
2022/01/07 10:51:27;;;;;;;2.53;2.33;;;;;;;;;;5065910;28;20513;-56
2022/01/07 10:53:53;;;;;;;4.20;2.07;;;;;;;;;;5068832;28;20489;-56
2022/01/07 10:56:20;;;;;;;5.53;2.97;;;;;;;;;;5067664;28;20196;-56
2022/01/07 10:58:46;;;;;;;2.50;2.30;;;;;;;;;;5065521;28;20566;-55
2022/01/07 11:01:21;;;;;;;2.87;2.47;;;;;;;;;;5047961;28;20188;-55
2022/01/07 11:03:48;;;;;;;2.60;2.40;;;;;;;;;;5058244;28;20195;-55
2022/01/07 11:06:14;;;;;;;2.63;2.43;;;;;;;;;;5048879;28;20554;-55
2022/01/07 11:08:40;;;;;;;2.63;2.10;;;;;;;;;;5068073;28;20840;-55
2022/01/07 11:11:08;;;;;;;3.63;2.80;;;;;;;;;;5067340;28;20419;-56
2022/01/07 11:13:34;;;;;;;3.00;2.40;;;;;;;;;;5065068;28;20434;-55
2022/01/07 11:16:01;;;;;;;3.60;2.40;;;;;;;;;;5068933;28;20179;-55
2022/01/07 11:18:27;;;;;;;2.67;2.47;;;;;;;;;;5073212;28;20312;-56
2022/01/07 11:20:57;;;;;;;2.47;1.90;;;;;;;;;;5065916;28;20690;-55
2022/01/07 11:23:25;;;;;;;3.27;2.03;;;;;;;;;;5073296;28;20686;-55
2022/01/07 11:26:08;;;;;;;2.60;2.40;;;;;;;;;;5066097;28;20415;-55
2022/01/07 11:28:34;;;;;;;2.73;2.30;;;;;;;;;;5064476;28;20585;-55
2022/01/07 11:31:04;;;;;;;4.13;2.10;;;;;;;;;;5065330;28;21797;-55
2022/01/07 11:33:30;;;;;;;2.50;2.30;;;;;;;;;;5065507;28;20418;-55
2022/01/07 11:35:56;;;;;;;2.70;2.17;;;;;;;;;;5064408;28;20184;-56
2022/01/07 11:38:33;;;;;;;2.80;2.47;;;;;;;;;;5066161;28;20894;-56
2022/01/07 11:40:59;;;;;;;2.80;2.20;;;;;;;;;;5066125;28;20180;-55
2022/01/07 11:43:31;;;;;;;17.70;2.50;;;;;;;;;;5064133;28;20176;-54
2022/01/07 11:45:58;;;;;;;2.77;2.40;;;;;;;;;;5064147;28;20448;-55
2022/01/07 11:48:27;;;;;;;9.10;3.00;;;;;;;;;;5065300;28;20181;-56
2022/01/07 11:50:54;;;;;;;4.07;2.77;;;;;;;;;;5066564;28;20259;-56
2022/01/07 11:53:20;;;;;;;4.00;3.27;;;;;;;;;;5066271;28;20213;-56
2022/01/07 11:55:46;;;;;;;5.07;2.90;;;;;;;;;;5071820;28;20196;-55
2022/01/07 11:58:13;;;;;;;3.83;3.23;;;;;;;;;;5067634;28;20222;-56
2022/01/07 12:00:59;;;;;;;3.83;2.70;;;;;;;;;;5074187;28;20421;-55
2022/01/07 12:03:38;;;;;;;7.03;3.80;;;;;;;;;;5075138;28;20188;-55
2022/01/07 12:06:26;;;;;;;5.13;2.97;;;;;;;;;;5079208;28;20255;-55
2022/01/07 12:09:10;;;;;;;2.97;2.77;;;;;;;;;;5064840;28;20763;-55
2022/01/07 12:11:58;;;;;;;3.23;2.93;;;;;;;;;;5065112;28;20184;-55
2022/01/07 12:14:26;;;;;;;3.27;2.73;;;;;;;;;;5066435;28;20264;-55
2022/01/07 12:16:53;;;;;;;4.60;2.80;;;;;;;;;;5070702;28;20176;-55
2022/01/07 12:19:20;;;;;;;5.07;3.10;;;;;;;;;;5070515;28;20285;-55
2022/01/07 12:21:47;;;;;;;3.87;3.33;;;;;;;;;;5074509;28;20680;-55
2022/01/07 12:24:14;;;;;;;4.03;2.90;;;;;;;;;;5056674;28;20172;-55
2022/01/07 12:26:41;;;;;;;4.77;3.27;;;;;;;;;;5080964;28;20683;-55
2022/01/07 12:29:15;;;;;;;3.63;3.00;;;;;;;;;;5067214;28;20227;-55
2022/01/07 12:31:51;;;;;;;3.23;2.87;;;;;;;;;;5060571;28;20267;-55
2022/01/07 12:34:30;;;;;;;3.00;2.70;;;;;;;;;;5073176;28;20169;-55
2022/01/07 12:36:57;;;;;;;5.33;3.00;;;;;;;;;;5073200;28;20566;-55
2022/01/07 12:39:31;;;;;;;3.10;2.80;;;;;;;;;;5059997;28;20188;-55
2022/01/07 12:41:57;;;;;;;3.30;3.00;;;;;;;;;;5075400;28;20189;-55
2022/01/07 12:44:24;;;;;;;3.37;2.80;;;;;;;;;;5052897;28;20584;-55
2022/01/07 12:46:51;;;;;;;4.63;2.73;;;;;;;;;;5070970;28;20257;-55
2022/01/07 12:49:18;;;;;;;3.73;3.07;;;;;;;;;;5070408;28;20642;-55
2022/01/07 12:51:44;;;;;;;6.47;3.40;;;;;;;;;;5073301;28;20210;-56
2022/01/07 12:54:11;;;;;;;4.77;2.97;;;;;;;;;;5065420;28;20216;-55
2022/01/07 12:56:39;;;;;;;3.30;2.77;;;;;;;;;;5067804;28;20231;-56
2022/01/07 12:59:11;;;;;;;6.17;3.50;;;;;;;;;;5067050;28;20183;-55
2022/01/07 13:01:37;;;;;;;5.17;3.23;;;;;;;;;;5061365;28;20227;-55
2022/01/07 13:04:03;;;;;;;4.07;3.07;;;;;;;;;;5068317;28;20196;-56
2022/01/07 13:06:29;;;;;;;3.53;2.73;;;;;;;;;;5059106;28;20174;-55
2022/01/07 13:08:55;;;;;;;3.67;3.17;;;;;;;;;;5069493;28;20177;-55
2022/01/07 13:11:22;;;;;;;6.60;4.00;;;;;;;;;;5066845;28;20212;-56
2022/01/07 13:14:01;;;;;;;3.67;3.07;;;;;;;;;;5068735;28;20191;-55
2022/01/07 13:16:28;;;;;;;3.57;3.20;;;;;;;;;;5066947;28;20531;-55
2022/01/07 13:19:00;;;;;;;5.70;3.33;;;;;;;;;;5067524;28;20253;-55
2022/01/07 13:21:27;;;;;;;5.30;3.83;;;;;;;;;;5062580;28;20231;-55
2022/01/07 13:23:54;;;;;;;7.67;3.30;;;;;;;;;;5067156;28;20181;-56
2022/01/07 13:26:22;;;;;;;6.60;3.77;;;;;;;;;;5068320;28;20254;-57
2022/01/07 13:28:49;;;;;;;4.03;3.43;;;;;;;;;;5065854;28;20316;-55
2022/01/07 13:31:17;;;;;;;4.07;3.20;;;;;;;;;;5066876;28;20574;-55
2022/01/07 13:33:44;;;;;;;3.60;3.30;;;;;;;;;;5062574;28;20617;-56
2022/01/07 13:36:11;;;;;;;4.63;3.77;;;;;;;;;;5067720;28;20184;-57
2022/01/07 13:38:37;;;;;;;7.77;4.23;;;;;;;;;;5054272;28;20287;-57
2022/01/07 13:41:07;;;;;;;3.53;3.23;;;;;;;;;;5064894;28;20247;-57
2022/01/07 13:43:34;;;;;;;8.10;2.87;;;;;;;;;;5064556;28;20168;-56
2022/01/07 13:46:12;;;;;;;13.87;3.23;;;;;;;;;;5066458;28;20259;-55
2022/01/07 13:49:09;;;;;;;7.57;3.00;;;;;;;;;;5067574;28;20179;-56
2022/01/07 13:51:36;;;;;;;6.53;2.13;;;;;;;;;;5037506;28;20200;-55
2022/01/07 13:54:10;;;;;;;1.70;1.40;;;;;;;;;;5072513;28;20234;-56
2022/01/07 13:56:38;;;;;;;2.57;1.50;;;;;;;;;;5087777;28;20932;-56
2022/01/07 13:59:07;;;;;;;4.70;1.93;;;;;;;;;;5089021;28;20183;-57
2022/01/07 14:01:33;;;;;;;2.23;1.50;;;;;;;;;;5083561;28;20720;-57
2022/01/07 14:03:59;;;;;;;2.37;1.83;;;;;;;;;;5088937;28;20538;-57
2022/01/07 14:06:25;;;;;;;3.23;2.20;;;;;;;;;;5089105;28;20171;-56
2022/01/07 14:09:10;;;;;;;4.63;2.93;;;;;;;;;;5082926;28;20176;-55
2022/01/07 14:11:36;;;;;;;2.53;1.87;;;;;;;;;;5076936;28;20191;-57
2022/01/07 14:14:12;;;;;;;4.63;1.70;;;;;;;;;;5088835;28;20218;-57
2022/01/07 14:16:43;;;;;;;3.63;1.80;;;;;;;;;;5086785;28;20366;-56
2022/01/07 14:19:09;;;;;;;1.23;1.13;;;;;;;;;;5088492;28;20210;-56
2022/01/07 14:21:35;;;;;;;2.53;1.50;;;;;;;;;;5085758;28;20210;-56
2022/01/07 14:24:01;;;;;;;1.53;1.37;;;;;;;;;;5076378;28;20203;-56
2022/01/07 14:26:30;;;;;;;5.23;1.40;;;;;;;;;;5080666;28;20203;-56
2022/01/07 14:28:59;;;;;;;1.93;0.90;;;;;;;;;;5081820;28;20642;-56
2022/01/07 14:31:26;;;;;;;2.87;1.10;;;;;;;;;;5080394;28;20185;-55
2022/01/07 14:33:52;;;;;;;2.20;1.20;;;;;;;;;;5087411;28;20285;-56
2022/01/07 14:36:18;;;;;;;2.47;0.93;;;;;;;;;;5064139;28;20214;-56
2022/01/07 14:38:46;;;;;;;2.17;1.73;;;;;;;;;;5082137;28;20192;-55
2022/01/07 14:41:12;;;;;;;2.47;1.30;;;;;;;;;;5077106;28;20764;-56
2022/01/07 14:43:38;;;;;;;3.97;1.43;;;;;;;;;;5081438;28;20508;-56
2022/01/07 14:46:08;;;;;;;2.03;0.97;;;;;;;;;;5085787;28;20198;-56
2022/01/07 14:48:35;;;;;;;2.67;1.10;;;;;;;;;;5080021;28;20267;-57
2022/01/07 14:51:02;;;;;;;4.33;1.23;;;;;;;;;;5068554;28;20183;-56
2022/01/07 14:53:28;;;;;;;2.27;1.03;;;;;;;;;;5079134;28;20225;-56
2022/01/07 14:55:54;;;;;;;2.17;1.20;;;;;;;;;;5065157;28;20651;-56
2022/01/07 14:58:20;;;;;;;3.07;1.60;;;;;;;;;;5065788;28;20175;-56
2022/01/07 15:00:47;;;;;;;2.03;1.10;;;;;;;;;;5060673;28;20181;-56